90TS weather

Brandes Air Field 2
Sealy, Texas, United States

Public forecast

Using degrees Fahrenheit for public forecast. Weather courtesy of forecast.io.

METAR (pilot weather report)

Closest report is Houston Executive Airport, 12.9 nm (23.9 km) ESE. Retrieved 2019/07/21 23:35 UTC (0 seconds ago):

KTME 212335Z AUTO 19013KT 9SM CLR 32/22 A2993 RMK AO2

TAF (pilot weather forecast)

Closest forecast is Sugar Land Regional Airport, 28.8 nm (53.4 km) ESE. Retrieved 2019/07/21 18:28 UTC (5 hours ago):

TAF KSGR 211726Z 2118/2218 19009KT P6SM SCT030 SCT250 FM212000 16007KT P6SM VCSH SCT035 SCT250 FM212200 17007KT P6SM VCTS SCT045CB BKN250 FM220000 16006KT P6SM FEW045 SCT250 FM221000 VRB03KT P6SM SCT015 BKN150 FM221600 25006KT P6SM VCSH FEW015 SCT035